Hlavní strana
METAR-TAF:

METAR-TAF

Letiště :

Kalamata, Řecko

zeměpisná šířka: 37-04N, zeměpisná délka: 022-01E, výška: 6 m

Aktuální stav počasí

Zpráva byla vytvořena před 26 minutami, v 18:50 UTC
Severní vítr 7 kt
Teplota 10°C
Vlhkost vzduchu 82%
Tlak 1002 hPa

METAR: LGKL 141850Z AUTO 35007KT //// // ////// 10/07 Q1002 RE//

Čas: 21:16 (19:16 UTC)

Předpověď počasí

Zpráva byla vytvořena před 2 hodinami a 16 minutami, v 17:00 UTC
Předpověď platná od 14 v 18 UTC do 15 v 03 UTC
Severozápadní vítr 8 kt
Viditelnost 10 km a více
Skoro jasno ve výšce 2500 ft

TAF: LGKL 141700Z 1418/1503 32008KT 9999 FEW025

Stav a předpovědi počasí z více než 4 000 letišť (zprávy METAR a TAF).

Červené a žluté tečky na mapě představují dostupné meteorologické stanice.

Když kurzor umístíte na tečku, zobrazí se název stanice.

Pak kliknutím zobrazíte stav a předpověď počasí.

Chcete-li změnit mapu, kliknutím na zelené tlačítko se znaménkem +mapu přiblížíte, kliknutím na zelené tlačítko se znaménkem – mapu oddálíte a kliknutím na zelené šipky přejdete na sousední mapy.


METAR-TAF: